Time;durP1;ratioP1;P1;durP2;ratioP2;P2;SDS_P1;SDS_P2;PMS_P1;PMS_P2;Temp;Humidity;BMP_temperature;BMP_pressure;BME280_temperature;BME280_humidity;BME280_pressure;Samples;Min_cycle;Max_cycle;Signal;HPM_P1;HPM_P2
2022/06/27 00:00:40;;;;;;;5.10;1.67;;;;;;;24.12;67.79;100301.09;4939627;28;20179;-70
2022/06/27 00:03:06;;;;;;;5.33;1.87;;;;;;;24.14;67.28;100267.69;4956011;28;20197;-70
2022/06/27 00:05:32;;;;;;;3.20;1.43;;;;;;;24.21;66.90;100217.78;4972150;28;20260;-71
2022/06/27 00:07:57;;;;;;;2.57;1.20;;;;;;;24.25;67.12;100155.94;4939633;28;20189;-70
2022/06/27 00:10:22;;;;;;;6.23;1.33;;;;;;;24.27;66.45;100043.81;4955178;28;20178;-70
2022/06/27 00:12:48;;;;;;;5.00;1.80;;;;;;;24.26;66.38;99949.84;4971150;28;20748;-70
2022/06/27 00:15:13;;;;;;;4.03;1.43;;;;;;;24.24;66.47;99906.16;4956005;28;20189;-71
2022/06/27 00:17:39;;;;;;;4.43;1.70;;;;;;;24.13;66.65;99865.06;4972035;28;20234;-70
2022/06/27 00:20:06;;;;;;;3.57;1.47;;;;;;;24.11;66.58;99820.59;4972121;28;20217;-72
2022/06/27 00:22:31;;;;;;;5.03;1.70;;;;;;;24.05;66.93;99837.59;4971799;28;20422;-70
2022/06/27 00:24:56;;;;;;;10.93;2.10;;;;;;;24.05;66.79;99856.94;4955029;28;20430;-70
2022/06/27 00:27:22;;;;;;;3.50;1.50;;;;;;;24.14;66.37;99886.91;4965107;28;20178;-72
2022/06/27 00:29:47;;;;;;;5.50;1.60;;;;;;;24.13;66.53;99928.53;4974165;28;20170;-72
2022/06/27 00:32:13;;;;;;;4.00;1.70;;;;;;;24.20;66.64;99942.91;4983550;28;20564;-70
2022/06/27 00:34:38;;;;;;;6.53;1.60;;;;;;;24.25;65.81;99958.91;4971155;28;20666;-71
2022/06/27 00:37:04;;;;;;;4.23;1.40;;;;;;;24.22;65.83;99977.91;4954549;28;20209;-72
2022/06/27 00:39:30;;;;;;;7.90;1.37;;;;;;;24.26;65.77;100003.81;4969628;28;20206;-71
2022/06/27 00:41:55;;;;;;;3.13;1.27;;;;;;;24.24;65.83;100018.69;4955763;28;20175;-70
2022/06/27 00:44:37;;;;;;;5.03;1.40;;;;;;;24.22;65.86;100029.84;4969816;28;20186;-71
2022/06/27 00:47:07;;;;;;;6.67;1.50;;;;;;;24.23;65.59;100048.78;4955246;28;20188;-71
2022/06/27 00:49:33;;;;;;;2.67;1.20;;;;;;;24.26;65.76;100061.53;4971883;28;20432;-72
2022/06/27 00:51:58;;;;;;;2.73;1.30;;;;;;;24.27;65.64;100054.50;4955635;28;20452;-70
2022/06/27 00:54:24;;;;;;;3.10;1.10;;;;;;;24.23;65.52;100045.91;4973053;28;20462;-70
2022/06/27 00:56:51;;;;;;;2.77;1.30;;;;;;;24.24;65.55;100061.97;4970940;28;20186;-71
2022/06/27 00:59:16;;;;;;;2.90;1.23;;;;;;;24.22;65.41;100078.88;4973057;28;20182;-72
2022/06/27 01:01:42;;;;;;;3.53;1.20;;;;;;;24.24;65.09;100069.81;4956152;28;20425;-71
2022/06/27 01:04:07;;;;;;;4.10;1.40;;;;;;;24.20;65.36;100066.97;4963183;28;20195;-70
2022/06/27 01:06:33;;;;;;;1.90;0.80;;;;;;;24.17;65.51;100078.50;4965989;28;20242;-71
2022/06/27 01:08:58;;;;;;;2.40;0.93;;;;;;;24.20;65.54;100090.03;4966177;28;20178;-71
2022/06/27 01:11:23;;;;;;;3.53;1.37;;;;;;;24.20;65.39;100101.59;4968036;28;20178;-71
2022/06/27 01:13:49;;;;;;;2.40;1.20;;;;;;;24.16;65.48;100112.31;4967952;28;20199;-70
2022/06/27 01:16:14;;;;;;;3.10;1.10;;;;;;;24.13;65.72;100103.69;4967458;28;20182;-70
2022/06/27 01:18:40;;;;;;;2.23;0.90;;;;;;;24.11;65.42;100112.78;4968455;28;20184;-70
2022/06/27 01:21:08;;;;;;;5.00;1.33;;;;;;;24.11;65.80;100106.19;4966889;28;20171;-72
2022/06/27 01:23:35;;;;;;;2.43;1.00;;;;;;;24.11;65.37;100097.53;4949832;28;20186;-70
2022/06/27 01:26:00;;;;;;;2.40;1.07;;;;;;;24.13;65.42;100089.28;4934245;28;20439;-70
2022/06/27 01:28:25;;;;;;;6.33;1.10;;;;;;;24.16;65.22;100074.00;4970563;28;20422;-71
2022/06/27 01:30:51;;;;;;;4.47;1.20;;;;;;;24.20;65.19;100078.50;4970744;28;20225;-70
2022/06/27 01:33:16;;;;;;;6.27;1.23;;;;;;;24.21;65.12;100068.59;4968825;28;20252;-70
2022/06/27 01:35:42;;;;;;;3.30;1.07;;;;;;;24.24;65.06;100078.47;4952537;28;20175;-70
2022/06/27 01:38:07;;;;;;;5.13;1.00;;;;;;;24.25;65.04;100057.84;4955488;28;20538;-70
2022/06/27 01:40:33;;;;;;;3.60;1.53;;;;;;;24.27;64.79;100034.31;4970349;28;20182;-70
2022/06/27 01:42:59;;;;;;;1.80;1.00;;;;;;;24.27;64.92;100026.50;4953983;28;20174;-70
2022/06/27 01:45:24;;;;;;;3.30;1.00;;;;;;;24.28;65.01;100024.44;4972207;28;20249;-70
2022/06/27 01:47:50;;;;;;;4.03;1.43;;;;;;;24.28;64.77;100022.34;4955284;28;20166;-70
2022/06/27 01:50:15;;;;;;;3.60;0.83;;;;;;;24.30;64.79;100030.59;4971698;28;20197;-72
2022/06/27 01:52:41;;;;;;;4.37;1.27;;;;;;;24.29;64.61;100044.19;4955211;28;20209;-71
2022/06/27 01:55:07;;;;;;;3.60;1.00;;;;;;;24.29;64.97;100061.50;4955061;28;20662;-70
2022/06/27 01:57:33;;;;;;;3.70;1.20;;;;;;;24.29;64.72;100052.84;4970734;28;20190;-71
2022/06/27 01:59:58;;;;;;;4.10;1.63;;;;;;;24.28;64.82;100036.78;4972379;28;20583;-71
2022/06/27 02:02:23;;;;;;;3.50;1.30;;;;;;;24.29;64.71;100046.28;4954548;28;20538;-71
2022/06/27 02:04:49;;;;;;;4.23;1.20;;;;;;;24.27;65.01;100051.63;4953478;28;20559;-71
2022/06/27 02:07:14;;;;;;;4.93;1.47;;;;;;;24.27;64.94;100042.97;4954014;28;20175;-70
2022/06/27 02:09:40;;;;;;;3.80;1.00;;;;;;;24.27;64.81;100037.19;4954756;28;20174;-71
2022/06/27 02:12:22;;;;;;;3.93;1.13;;;;;;;24.27;64.92;100032.25;4969517;28;20185;-71
2022/06/27 02:14:51;;;;;;;4.27;1.30;;;;;;;24.27;64.81;100040.09;4971076;28;20753;-71
2022/06/27 02:17:17;;;;;;;2.40;1.00;;;;;;;24.27;65.09;100025.66;4969630;28;20508;-70
2022/06/27 02:19:43;;;;;;;2.27;1.00;;;;;;;24.27;65.03;100012.06;4953925;28;20576;-71
2022/06/27 02:22:09;;;;;;;3.00;1.17;;;;;;;24.28;65.14;100033.91;4953761;28;20178;-70
2022/06/27 02:24:35;;;;;;;4.13;1.03;;;;;;;24.28;64.92;100051.22;4970401;28;20170;-71
2022/06/27 02:27:00;;;;;;;2.33;1.30;;;;;;;24.28;64.86;100033.91;4961792;28;20479;-70
2022/06/27 02:29:26;;;;;;;1.83;0.80;;;;;;;24.27;64.76;100020.72;4973504;28;20182;-71
2022/06/27 02:31:51;;;;;;;3.53;1.00;;;;;;;24.28;64.70;100041.75;4973797;28;20174;-70
2022/06/27 02:34:17;;;;;;;5.03;1.20;;;;;;;24.27;64.74;100061.13;4969577;28;20205;-72
2022/06/27 02:36:43;;;;;;;4.00;1.10;;;;;;;24.27;64.96;100063.16;4973237;28;20178;-70
2022/06/27 02:39:11;;;;;;;3.03;1.20;;;;;;;24.28;64.84;100053.28;4958270;28;20237;-71
2022/06/27 02:41:38;;;;;;;3.80;1.00;;;;;;;24.27;65.09;100037.19;4955802;28;20568;-70
2022/06/27 02:44:08;;;;;;;4.47;1.00;;;;;;;24.26;64.84;100047.09;4955643;28;20789;-70
2022/06/27 02:46:34;;;;;;;3.00;0.93;;;;;;;24.26;64.97;100047.94;4992525;28;20432;-72
2022/06/27 02:48:59;;;;;;;4.17;1.20;;;;;;;24.26;65.21;100030.63;4993433;28;20428;-72
2022/06/27 02:51:26;;;;;;;4.40;1.20;;;;;;;24.27;65.46;100026.50;4994402;28;20181;-72
2022/06/27 02:54:08;;;;;;;3.23;1.10;;;;;;;24.26;65.13;100013.31;4994973;28;20229;-71
2022/06/27 02:56:34;;;;;;;1.90;0.90;;;;;;;24.26;65.44;100000.94;4962154;28;20461;-72
2022/06/27 02:59:06;;;;;;;3.73;1.30;;;;;;;24.27;64.84;100009.19;4946171;29;20491;-71
2022/06/27 03:01:33;;;;;;;3.63;0.90;;;;;;;24.27;64.98;100025.66;4956450;29;20427;-72
2022/06/27 03:03:59;;;;;;;2.90;1.00;;;;;;;24.26;64.88;100012.47;4976608;28;20440;-71
2022/06/27 03:06:25;;;;;;;4.23;1.50;;;;;;;24.26;64.32;99998.88;4958757;28;20528;-71
2022/06/27 03:08:50;;;;;;;7.67;1.20;;;;;;;24.25;64.94;100011.69;4957217;28;20434;-71
2022/06/27 03:11:17;;;;;;;2.90;1.00;;;;;;;24.25;65.03;100023.22;4973861;28;20502;-71
2022/06/27 03:13:43;;;;;;;2.57;1.20;;;;;;;24.26;64.82;100039.28;4957526;28;20230;-72
2022/06/27 03:16:08;;;;;;;2.47;1.07;;;;;;;24.25;64.83;100042.59;4972938;28;20549;-72
2022/06/27 03:18:34;;;;;;;2.17;1.10;;;;;;;24.23;65.12;100036.44;4958698;28;20441;-71
2022/06/27 03:21:00;;;;;;;3.03;1.27;;;;;;;24.21;65.15;100027.38;4972483;28;20175;-71
2022/06/27 03:23:25;;;;;;;4.93;1.50;;;;;;;24.18;65.13;100029.03;4958540;28;20246;-72
2022/06/27 03:25:52;;;;;;;5.07;1.10;;;;;;;24.03;66.02;100023.84;4959329;28;20527;-71
2022/06/27 03:28:17;;;;;;;3.70;1.03;;;;;;;24.11;65.45;100023.34;5006065;28;20174;-71
2022/06/27 03:30:43;;;;;;;5.43;1.60;;;;;;;24.14;65.51;100016.72;4991718;28;20427;-70
2022/06/27 03:33:08;;;;;;;2.47;1.10;;;;;;;24.15;65.48;100029.91;4985008;28;20245;-70
2022/06/27 03:35:33;;;;;;;3.10;1.20;;;;;;;24.16;65.52;100043.09;4972202;28;20178;-72
2022/06/27 03:37:59;;;;;;;2.83;1.20;;;;;;;24.14;65.46;100013.81;4956125;28;20210;-71
2022/06/27 03:40:24;;;;;;;2.00;1.10;;;;;;;24.14;65.40;100008.06;4953956;28;20256;-71
2022/06/27 03:42:50;;;;;;;2.90;1.20;;;;;;;24.12;65.83;100036.53;4956015;28;20270;-70
2022/06/27 03:45:15;;;;;;;4.57;1.30;;;;;;;24.11;65.61;100034.88;4956996;28;20712;-70
2022/06/27 03:47:52;;;;;;;2.10;1.30;;;;;;;24.10;65.81;100030.38;4956038;28;20642;-70
2022/06/27 03:50:18;;;;;;;5.40;1.40;;;;;;;24.11;65.77;100029.13;4957426;28;20214;-71
2022/06/27 03:52:43;;;;;;;3.53;1.40;;;;;;;24.11;66.00;100028.28;4973290;28;20430;-71
2022/06/27 03:55:09;;;;;;;3.60;1.20;;;;;;;24.05;66.11;100030.00;4953497;28;20443;-70
2022/06/27 03:57:36;;;;;;;4.43;1.27;;;;;;;24.01;65.76;100030.03;4984809;28;20183;-71
2022/06/27 04:00:03;;;;;;;3.83;1.27;;;;;;;24.01;66.27;100035.81;4984887;28;20427;-70
2022/06/27 04:02:28;;;;;;;4.70;1.80;;;;;;;24.02;66.19;100053.91;4972581;28;20892;-71
2022/06/27 04:04:53;;;;;;;2.93;1.37;;;;;;;23.99;66.26;100049.81;4974012;28;20563;-70
2022/06/27 04:07:19;;;;;;;3.43;1.57;;;;;;;23.99;66.27;100049.81;4973640;28;20634;-72
2022/06/27 04:09:44;;;;;;;4.60;1.77;;;;;;;23.95;66.45;100062.63;4973234;28;20174;-71
2022/06/27 04:12:11;;;;;;;3.80;1.70;;;;;;;23.92;66.71;100072.94;4973561;28;20531;-70
2022/06/27 04:14:37;;;;;;;3.50;1.40;;;;;;;23.95;66.54;100088.59;4956107;28;20209;-70
2022/06/27 04:17:03;;;;;;;3.20;1.70;;;;;;;23.90;66.94;100081.22;4974219;28;20799;-72
2022/06/27 04:19:28;;;;;;;4.20;1.40;;;;;;;23.95;66.70;100091.47;4955070;28;20261;-71
2022/06/27 04:21:54;;;;;;;3.90;1.63;;;;;;;23.99;66.57;100098.03;4973570;28;20593;-71
2022/06/27 04:24:20;;;;;;;4.80;1.37;;;;;;;23.96;66.54;100095.97;4972509;28;20166;-71
2022/06/27 04:26:46;;;;;;;4.33;1.97;;;;;;;23.99;66.62;100072.88;4961523;28;20425;-70
2022/06/27 04:29:11;;;;;;;4.40;1.87;;;;;;;23.89;67.19;100056.47;4994756;28;20166;-71
2022/06/27 04:31:37;;;;;;;3.33;1.50;;;;;;;23.89;67.14;100035.50;4973779;28;20564;-70
2022/06/27 04:34:04;;;;;;;8.63;1.90;;;;;;;23.95;66.83;100040.38;4990648;28;20708;-71
2022/06/27 04:36:30;;;;;;;5.50;1.80;;;;;;;23.97;67.00;100051.47;4956912;28;20182;-71
2022/06/27 04:38:56;;;;;;;3.63;1.40;;;;;;;23.95;67.07;100083.66;4972431;28;20428;-70
2022/06/27 04:41:21;;;;;;;5.90;1.60;;;;;;;23.99;66.81;100119.03;4972674;28;20175;-72
2022/06/27 04:43:47;;;;;;;3.10;1.80;;;;;;;24.02;66.92;100117.34;4973509;28;20194;-71
2022/06/27 04:46:13;;;;;;;3.53;1.70;;;;;;;24.04;66.68;100088.94;4955128;28;20596;-70
2022/06/27 04:48:38;;;;;;;3.73;1.40;;;;;;;24.03;66.92;100078.66;4958309;28;20423;-70
2022/06/27 04:51:06;;;;;;;3.67;1.90;;;;;;;24.03;67.06;100090.97;4955699;28;20245;-70
2022/06/27 04:53:32;;;;;;;2.87;1.47;;;;;;;24.02;67.08;100120.25;4972975;28;20241;-70
2022/06/27 04:55:58;;;;;;;3.53;1.63;;;;;;;24.01;67.07;100130.16;4972919;28;20461;-71
2022/06/27 04:58:23;;;;;;;3.43;1.60;;;;;;;24.03;66.68;100111.16;4955680;28;20829;-71
2022/06/27 05:00:49;;;;;;;3.30;1.57;;;;;;;24.05;66.52;100105.81;4957819;28;20182;-70
2022/06/27 05:03:14;;;;;;;3.33;1.30;;;;;;;24.08;66.62;100127.22;4971350;28;20198;-71
2022/06/27 05:05:40;;;;;;;4.20;1.63;;;;;;;24.07;66.32;100126.41;4974692;28;20229;-71
2022/06/27 05:08:05;;;;;;;3.50;1.60;;;;;;;24.10;66.38;100133.38;4956955;28;20182;-70
2022/06/27 05:10:31;;;;;;;7.53;2.03;;;;;;;24.10;66.46;100147.81;4955103;28;20190;-70
2022/06/27 05:12:56;;;;;;;4.87;2.10;;;;;;;24.06;66.79;100165.16;4957278;28;20170;-71
2022/06/27 05:15:22;;;;;;;6.90;1.93;;;;;;;24.06;66.97;100159.38;4971874;28;20233;-70
2022/06/27 05:17:47;;;;;;;5.43;1.53;;;;;;;24.04;66.74;100156.06;4956008;28;20254;-71
2022/06/27 05:20:13;;;;;;;4.20;1.90;;;;;;;24.05;67.08;100154.03;4953917;28;20193;-70
2022/06/27 05:22:39;;;;;;;5.87;2.10;;;;;;;24.08;66.73;100164.72;4971914;28;20175;-72
2022/06/27 05:25:05;;;;;;;4.93;2.30;;;;;;;24.07;67.06;100171.72;4951401;28;20603;-70
2022/06/27 05:27:31;;;;;;;6.53;1.90;;;;;;;24.05;67.29;100165.56;4974355;28;20524;-71
2022/06/27 05:29:56;;;;;;;3.77;1.60;;;;;;;24.06;66.90;100142.06;4973755;28;20224;-71
2022/06/27 05:32:21;;;;;;;4.20;1.63;;;;;;;24.08;66.61;100145.34;4991245;28;20177;-71
2022/06/27 05:34:48;;;;;;;3.80;1.30;;;;;;;24.09;66.49;100169.25;4990743;28;20561;-71
2022/06/27 05:37:13;;;;;;;4.50;1.67;;;;;;;24.09;66.95;100169.25;4990315;28;20225;-70
2022/06/27 05:39:42;;;;;;;3.23;1.40;;;;;;;24.09;66.72;100161.41;4980977;28;21129;-70
2022/06/27 05:42:08;;;;;;;2.50;1.47;;;;;;;24.10;66.86;100174.59;4971152;28;20209;-71
2022/06/27 05:44:33;;;;;;;4.13;1.63;;;;;;;24.09;66.77;100170.06;4953649;28;20504;-71
2022/06/27 05:46:59;;;;;;;3.70;1.83;;;;;;;24.09;66.51;100181.59;4968484;28;20189;-70
2022/06/27 05:49:25;;;;;;;5.67;1.63;;;;;;;24.08;66.63;100197.25;4953700;28;20198;-70
2022/06/27 05:51:52;;;;;;;4.40;1.60;;;;;;;24.09;66.84;100215.41;4953356;28;20647;-72
2022/06/27 05:54:18;;;;;;;3.40;1.60;;;;;;;24.08;67.29;100216.66;4955448;28;20797;-71
2022/06/27 05:56:43;;;;;;;4.13;1.60;;;;;;;24.07;66.93;100207.16;4954485;28;20430;-70
2022/06/27 05:59:09;;;;;;;5.87;1.50;;;;;;;24.05;66.90;100197.28;4952661;28;20484;-71
2022/06/27 06:01:37;;;;;;;6.27;1.80;;;;;;;24.06;67.18;100193.16;4954630;28;20605;-71
2022/06/27 06:04:03;;;;;;;3.80;1.53;;;;;;;24.06;67.23;100198.94;4968832;28;20937;-70
2022/06/27 06:06:29;;;;;;;3.83;1.53;;;;;;;24.08;67.01;100197.25;4971042;28;20478;-71
2022/06/27 06:08:54;;;;;;;2.83;1.60;;;;;;;24.08;66.75;100200.16;4953295;28;20434;-71
2022/06/27 06:11:20;;;;;;;3.17;1.30;;;;;;;24.07;67.25;100204.28;4969766;28;20179;-70
2022/06/27 06:13:46;;;;;;;4.97;1.73;;;;;;;24.08;66.97;100208.81;4954293;28;20716;-70
2022/06/27 06:16:16;;;;;;;3.60;1.40;;;;;;;24.04;67.36;100208.00;4972594;28;20245;-70
2022/06/27 06:18:42;;;;;;;3.60;1.33;;;;;;;24.02;67.59;100215.44;4955509;28;20186;-71
2022/06/27 06:21:07;;;;;;;3.50;1.40;;;;;;;24.01;67.04;100203.09;4968244;28;20789;-70
2022/06/27 06:23:33;;;;;;;5.17;1.40;;;;;;;24.03;67.31;100205.56;4954670;28;20225;-70
2022/06/27 06:26:01;;;;;;;6.63;1.23;;;;;;;24.00;67.55;100223.69;4954491;28;20532;-70
2022/06/27 06:28:30;;;;;;;2.70;1.30;;;;;;;24.02;67.16;100229.84;4972430;28;20177;-71
2022/06/27 06:30:56;;;;;;;3.30;1.30;;;;;;;24.03;67.32;100226.53;4972470;28;20413;-71
2022/06/27 06:33:22;;;;;;;6.50;1.70;;;;;;;24.03;67.24;100222.84;4989261;28;21100;-71
2022/06/27 06:35:48;;;;;;;4.03;1.67;;;;;;;24.01;67.22;100226.16;4967729;28;20192;-70
2022/06/27 06:38:13;;;;;;;5.83;1.60;;;;;;;24.01;67.01;100226.16;4971649;28;20446;-71
2022/06/27 06:40:39;;;;;;;2.63;1.47;;;;;;;24.01;67.21;100226.16;4970183;28;20174;-70
2022/06/27 06:43:04;;;;;;;2.30;1.27;;;;;;;24.03;66.90;100215.00;4969246;28;20182;-69
2022/06/27 06:45:30;;;;;;;3.83;1.40;;;;;;;24.01;67.23;100191.53;4970211;28;20187;-71
2022/06/27 06:47:56;;;;;;;4.53;1.83;;;;;;;24.03;66.95;100189.06;4954073;28;20174;-71
2022/06/27 06:50:21;;;;;;;5.00;1.73;;;;;;;24.06;67.08;100199.75;4949690;28;20285;-70
2022/06/27 06:52:50;;;;;;;9.17;1.70;;;;;;;24.06;66.97;100198.94;4950525;29;20183;-71
2022/06/27 06:55:21;;;;;;;4.73;2.10;;;;;;;24.06;66.98;100205.53;4977549;28;20205;-71
2022/06/27 06:57:47;;;;;;;3.23;1.30;;;;;;;24.07;66.88;100214.97;4973737;28;20464;-71
2022/06/27 07:00:13;;;;;;;3.70;1.90;;;;;;;24.05;67.04;100235.63;4961158;28;20507;-70
2022/06/27 07:02:39;;;;;;;5.00;2.23;;;;;;;24.01;67.54;100237.69;4970453;28;20422;-70
2022/06/27 07:05:08;;;;;;;2.90;1.90;;;;;;;24.00;67.52;100256.25;4970253;28;20234;-70
2022/06/27 07:07:34;;;;;;;4.20;2.50;;;;;;;23.86;68.21;100278.50;4985999;28;20185;-70
2022/06/27 07:10:00;;;;;;;4.40;2.43;;;;;;;23.90;68.20;100288.84;4990532;28;20917;-70
2022/06/27 07:12:26;;;;;;;4.70;2.43;;;;;;;23.91;67.99;100284.72;4990009;28;20432;-71
2022/06/27 07:14:54;;;;;;;7.50;2.60;;;;;;;23.90;68.03;100283.06;4980262;28;20207;-70
2022/06/27 07:17:24;;;;;;;8.83;3.20;;;;;;;23.72;68.47;100258.38;4953418;28;20509;-70
2022/06/27 07:19:53;;;;;;;4.00;2.80;;;;;;;23.82;68.10;100255.47;4953682;28;20442;-71
2022/06/27 07:22:20;;;;;;;6.07;3.23;;;;;;;23.80;68.54;100269.50;4954210;28;20453;-70
2022/06/27 07:24:48;;;;;;;6.23;2.80;;;;;;;23.86;68.21;100275.63;4969822;28;20441;-71
2022/06/27 07:27:16;;;;;;;5.67;2.90;;;;;;;23.89;67.85;100272.75;4961983;28;20432;-70
2022/06/27 07:29:42;;;;;;;4.20;2.40;;;;;;;23.89;67.83;100269.88;4989387;28;20447;-71
2022/06/27 07:32:08;;;;;;;12.43;3.40;;;;;;;23.89;67.75;100266.97;4972546;28;20452;-70
2022/06/27 07:34:34;;;;;;;5.10;2.63;;;;;;;23.93;67.41;100264.91;4975054;28;20202;-71
2022/06/27 07:37:00;;;;;;;7.00;2.23;;;;;;;23.96;67.53;100264.09;4978814;28;20515;-72
2022/06/27 07:39:26;;;;;;;5.10;3.20;;;;;;;23.96;67.41;100264.09;4972860;28;20441;-71
2022/06/27 07:41:53;;;;;;;6.13;3.30;;;;;;;23.96;67.18;100269.84;4973043;28;20340;-70
2022/06/27 07:44:18;;;;;;;5.07;3.10;;;;;;;23.97;67.11;100253.34;4957053;28;20489;-71
2022/06/27 07:46:44;;;;;;;4.90;3.10;;;;;;;23.98;67.28;100258.72;4972363;28;20780;-71
2022/06/27 07:49:12;;;;;;;4.17;2.83;;;;;;;23.98;67.54;100241.41;4972313;28;20218;-70
2022/06/27 07:51:38;;;;;;;4.60;3.60;;;;;;;24.00;67.03;100256.25;4972502;28;20701;-70
2022/06/27 07:54:03;;;;;;;4.07;3.07;;;;;;;24.01;66.69;100254.16;4972554;28;20473;-71
2022/06/27 07:56:28;;;;;;;5.03;2.80;;;;;;;24.00;66.76;100259.13;4972205;28;20206;-72
2022/06/27 07:58:54;;;;;;;6.90;3.30;;;;;;;24.01;67.22;100259.94;4955239;28;20686;-70
2022/06/27 08:01:20;;;;;;;5.93;3.20;;;;;;;24.01;67.03;100278.06;4972081;28;20206;-70
2022/06/27 08:03:49;;;;;;;6.17;3.83;;;;;;;23.99;67.01;100286.31;4955777;28;20195;-72
2022/06/27 08:06:22;;;;;;;4.73;3.17;;;;;;;23.97;67.42;100271.50;4956130;28;20548;-70
2022/06/27 08:08:58;;;;;;;5.53;2.80;;;;;;;23.96;67.30;100278.50;4976039;28;21029;-70
2022/06/27 08:11:25;;;;;;;4.20;3.00;;;;;;;23.95;67.24;100297.06;4971514;28;20453;-70
2022/06/27 08:13:53;;;;;;;3.47;2.80;;;;;;;23.97;67.46;100314.75;4955865;28;21010;-70
2022/06/27 08:16:20;;;;;;;6.27;3.30;;;;;;;23.96;67.95;100310.22;4955431;28;20804;-70
2022/06/27 08:18:47;;;;;;;6.20;2.93;;;;;;;23.96;67.21;100298.69;4956042;28;20509;-70
2022/06/27 08:21:17;;;;;;;4.40;3.20;;;;;;;23.97;67.58;100282.19;4955593;28;20440;-70
2022/06/27 08:23:43;;;;;;;4.80;3.17;;;;;;;23.99;67.17;100271.88;4956682;28;20429;-71
2022/06/27 08:26:08;;;;;;;4.20;2.83;;;;;;;24.01;67.26;100271.47;4970535;28;20436;-70
2022/06/27 08:28:37;;;;;;;5.20;2.77;;;;;;;24.04;67.15;100270.66;4950921;28;20175;-72
2022/06/27 08:31:10;;;;;;;4.00;2.60;;;;;;;24.03;66.90;100278.47;4934463;28;20194;-70
2022/06/27 08:33:36;;;;;;;3.40;2.83;;;;;;;24.05;66.75;100281.78;4950993;29;20454;-70
2022/06/27 08:36:02;;;;;;;3.63;2.97;;;;;;;24.04;66.85;100288.75;4958990;28;20779;-70
2022/06/27 08:38:28;;;;;;;4.60;3.07;;;;;;;24.05;67.31;100295.38;4951314;28;20183;-70
2022/06/27 08:40:54;;;;;;;3.70;3.20;;;;;;;24.02;67.46;100299.06;4951963;28;20195;-70
2022/06/27 08:43:19;;;;;;;10.13;3.63;;;;;;;24.00;67.32;100313.94;4951781;28;20449;-70
2022/06/27 08:45:45;;;;;;;5.67;2.93;;;;;;;24.01;67.22;100318.47;4967238;28;20178;-70
2022/06/27 08:48:13;;;;;;;6.20;3.20;;;;;;;24.01;67.40;100323.38;4974614;28;20192;-70
2022/06/27 08:50:38;;;;;;;3.40;2.83;;;;;;;24.01;67.73;100312.69;4990661;28;20923;-70
2022/06/27 08:53:04;;;;;;;11.90;4.00;;;;;;;24.03;67.67;100318.03;4990262;28;20405;-70
2022/06/27 08:55:33;;;;;;;6.43;3.27;;;;;;;24.01;67.55;100306.91;4974351;28;20177;-71
2022/06/27 08:58:06;;;;;;;3.07;2.63;;;;;;;24.01;67.55;100300.31;4987039;28;20712;-70
2022/06/27 09:00:33;;;;;;;5.43;3.30;;;;;;;24.01;68.11;100315.56;4975683;28;20428;-72
2022/06/27 09:02:59;;;;;;;3.57;2.80;;;;;;;24.01;67.91;100330.00;4967039;28;20457;-70
2022/06/27 09:05:31;;;;;;;4.70;3.60;;;;;;;24.01;67.49;100315.56;4972303;28;20470;-72
2022/06/27 09:07:59;;;;;;;4.43;2.93;;;;;;;24.01;67.92;100306.91;4940490;28;20224;-72
2022/06/27 09:10:39;;;;;;;3.90;3.40;;;;;;;24.03;67.98;100310.19;4955092;28;20516;-70
2022/06/27 09:13:11;;;;;;;6.63;3.67;;;;;;;24.06;68.31;100320.06;4938932;28;20803;-71
2022/06/27 09:15:44;;;;;;;4.90;3.17;;;;;;;24.01;68.00;100318.47;4955125;28;20426;-70
2022/06/27 09:18:09;;;;;;;4.70;2.97;;;;;;;24.01;68.37;100330.00;4986924;28;20898;-70
2022/06/27 09:20:58;;;;;;;4.27;3.23;;;;;;;24.02;68.14;100337.41;4954491;28;20468;-71
2022/06/27 09:23:49;;;;;;;5.10;3.83;;;;;;;24.02;68.62;100348.94;4970260;28;20241;-70
2022/06/27 09:26:31;;;;;;;4.20;2.90;;;;;;;23.98;68.75;100359.66;4971579;28;20882;-70
2022/06/27 09:29:10;;;;;;;7.00;2.70;;;;;;;23.95;68.72;100372.06;4973386;28;20774;-72
2022/06/27 09:31:37;;;;;;;6.23;3.50;;;;;;;23.88;69.35;100372.00;4973319;28;20428;-72
2022/06/27 09:34:09;;;;;;;4.07;2.90;;;;;;;23.91;68.95;100376.16;4972327;28;21096;-72
2022/06/27 09:36:41;;;;;;;4.87;2.80;;;;;;;23.91;69.02;100394.31;4977435;28;20450;-70
2022/06/27 09:39:10;;;;;;;6.43;3.03;;;;;;;23.88;68.87;100400.84;4969123;28;20445;-71
2022/06/27 09:41:36;;;;;;;5.10;3.13;;;;;;;23.92;68.90;100416.13;4970100;28;20422;-70
2022/06/27 09:44:12;;;;;;;5.13;2.70;;;;;;;23.87;68.85;100419.41;4955657;28;20510;-70
2022/06/27 09:46:42;;;;;;;3.30;2.50;;;;;;;23.88;69.00;100420.25;4958812;28;20166;-70
2022/06/27 09:49:12;;;;;;;3.77;2.63;;;;;;;23.89;68.93;100419.03;4969794;28;20788;-70
2022/06/27 09:51:38;;;;;;;5.57;2.90;;;;;;;23.90;68.85;100421.50;4972312;28;20521;-70
2022/06/27 09:54:09;;;;;;;4.20;2.80;;;;;;;23.91;68.48;100417.38;4956065;28;21027;-70
2022/06/27 09:56:39;;;;;;;3.73;2.60;;;;;;;23.93;68.47;100393.91;4953984;28;20204;-70
2022/06/27 09:59:09;;;;;;;6.20;3.00;;;;;;;23.95;68.51;100389.34;4971989;28;20980;-70
2022/06/27 10:01:35;;;;;;;4.40;3.00;;;;;;;23.95;68.47;100389.34;4973166;28;20429;-70
2022/06/27 10:04:01;;;;;;;3.33;2.37;;;;;;;23.97;68.13;100409.09;4978272;28;20468;-70
2022/06/27 10:06:29;;;;;;;5.43;2.90;;;;;;;23.97;68.20;100407.06;4980131;28;20482;-72
2022/06/27 10:08:54;;;;;;;3.30;2.43;;;;;;;23.98;68.29;100405.81;4957968;28;20508;-70
2022/06/27 10:11:20;;;;;;;3.83;3.10;;;;;;;23.97;68.37;100412.81;4972124;28;20441;-70
2022/06/27 10:13:45;;;;;;;4.03;2.40;;;;;;;23.98;68.19;100422.31;4990322;28;20205;-70
2022/06/27 10:16:13;;;;;;;4.37;2.53;;;;;;;23.97;68.38;100424.34;4959256;28;20185;-71
2022/06/27 10:19:13;;;;;;;4.80;2.90;;;;;;;23.91;68.80;100434.69;4956354;28;20661;-70
2022/06/27 10:21:45;;;;;;;3.20;2.27;;;;;;;23.86;68.95;100429.28;4971601;28;20826;-70
2022/06/27 10:24:16;;;;;;;3.73;2.73;;;;;;;23.91;68.60;100439.59;4955881;28;20460;-70
2022/06/27 10:26:42;;;;;;;3.97;2.50;;;;;;;23.92;68.71;100441.25;4989197;28;20425;-70
2022/06/27 10:29:33;;;;;;;5.17;2.63;;;;;;;23.92;68.63;100442.09;4972241;28;20939;-70
2022/06/27 10:32:01;;;;;;;4.10;2.37;;;;;;;23.94;68.63;100447.44;4994077;28;20165;-70
2022/06/27 10:34:39;;;;;;;4.87;2.90;;;;;;;23.93;68.25;100449.50;4986847;28;20815;-70
2022/06/27 10:37:26;;;;;;;3.60;2.23;;;;;;;23.93;68.27;100442.91;4989297;28;20440;-70
2022/06/27 10:40:15;;;;;;;4.20;2.43;;;;;;;23.94;68.42;100439.59;4971518;28;20421;-70
2022/06/27 10:43:00;;;;;;;3.20;2.50;;;;;;;23.93;68.48;100449.50;4973910;28;20461;-70
2022/06/27 10:45:28;;;;;;;5.17;2.30;;;;;;;23.94;68.54;100456.09;4969999;28;20434;-70
2022/06/27 10:47:58;;;;;;;6.30;2.53;;;;;;;23.95;68.17;100447.03;4984506;28;20421;-69
2022/06/27 10:50:26;;;;;;;4.50;2.53;;;;;;;23.98;68.09;100436.72;4972921;28;20482;-70
2022/06/27 10:53:15;;;;;;;4.40;2.77;;;;;;;23.97;68.28;100430.13;4972555;28;20479;-70
2022/06/27 10:55:42;;;;;;;4.20;2.17;;;;;;;23.98;68.33;100439.63;4985945;28;20449;-70
2022/06/27 10:58:27;;;;;;;4.13;2.20;;;;;;;24.01;68.53;100438.78;4990532;28;20429;-70
2022/06/27 11:01:13;;;;;;;4.93;2.63;;;;;;;24.01;68.36;100439.59;4974359;28;20425;-70
2022/06/27 11:03:39;;;;;;;4.37;2.70;;;;;;;24.00;68.57;100435.06;4954411;28;20457;-69
2022/06/27 11:06:05;;;;;;;4.10;2.63;;;;;;;23.93;69.48;100440.03;4978413;28;20512;-70
2022/06/27 11:08:35;;;;;;;3.47;2.70;;;;;;;23.92;69.37;100427.66;4967418;28;20210;-70
2022/06/27 11:11:00;;;;;;;5.10;2.40;;;;;;;23.96;69.08;100428.50;4956728;28;20241;-70
2022/06/27 11:13:40;;;;;;;8.80;2.80;;;;;;;23.98;68.88;100428.09;4972299;28;20508;-70
2022/06/27 11:16:07;;;;;;;3.67;2.90;;;;;;;23.95;68.92;100429.72;4953599;28;20198;-70
2022/06/27 11:18:58;;;;;;;5.43;2.47;;;;;;;23.98;68.95;100426.00;4937598;29;20478;-70
2022/06/27 11:21:33;;;;;;;3.47;2.73;;;;;;;23.97;69.29;100420.63;4957078;29;20411;-70
2022/06/27 11:24:08;;;;;;;3.10;2.37;;;;;;;23.99;69.52;100427.63;4937536;29;20417;-69
2022/06/27 11:26:43;;;;;;;2.80;2.20;;;;;;;24.00;68.94;100426.44;4961592;28;20427;-70